Pular para o conteúdo principal

AVIÃO PROVENIENTE DO RIO SAI DA PISTA DURANTE POUSO EM BUENOS AIRES





Um Embraer 190, prefixo LV-CKZ, nr série 19000439, com 106 ocupantes,   da companhia Austral que vinha do Rio saiu da pista na manhã desta sexta-feira enquanto aterrissava no Aeroporto Internacional de Ezeiza, a 35 km de Buenos Aires, em meio à uma forte tempestade na região da capital argentina. Ninguém ficou ferido. 

O voo AU 2255 levava 106 passageiros e quatro tripulantes, que saíram da aeronave pelos escorregadores infláveis de emergência. Após o pouso, a brigada de incêndio foi chamada por precaução, a fim de evitar que o aparelho entrasse em chamas. 

Devido ao acidente, quatro voos que deveriam chegar a Ezeiza tiveram que ser desviados para outros aeroportos da região, sendo dois voos vindos do Brasil. 

Tanto o voo 2265 da Austral, que decolou de Belo Horizonte, como o 1269 da Aerolíneas Argentinas, vindo de Brasília, desceram no Aeroparque Jorge Newbery, na capital argentina. 

Não há informações de cancelamentos ou atrasos em outros voos saídos do Brasil para a Argentina. 

Metar

SAEZ 150900Z 19014KT 160V240 3000 RA FEW010 SCT020 OVC050 16/16 Q1004
SAEZ 150846Z 25020G34KT 3000 RA SCT004 BKN010 OVC060 19/18 Q1005
SAEZ 150800Z 11002KT 9000 -RA SCT010 BKN070 19/18 Q1002

fonte/ASN/FolhaSP/foto/ LaNacion@sabrinaemil

Comentários

Postagens mais visitadas deste blog

AVIÃO COM O SENADOR AÉCIO NEVES FAZ POUSO DE EMERGÊNCIA NO AEROPORTO DE GUARULHOS

Imagem com a aeronave em que estaria Aécio, fora da pista, e que circula na internet
O avião em que estava o senador Aécio Neves (PSDB) precisou fazer um pouso de emergência no aeroporto internacional de Guarulhos na noite de quinta-feira (9), informou sua assessoria de imprensa.
Já era noite quando a aeronave, um táxi aéreo fretado pelo PSDB, saiu de Brasília com destino a São Paulo. Os pilotos, percebendo que um pedaço do pneu havia ficado na pista, teriam solicitado autorização para pousar em Cumbica, ao invés de Congonhas, por ter uma pista maior. Ao aterrissar, no entanto, o trem de pouso teria se quebrado, vindo o avião a sair da pista.
Apenas Aécio e a tripulação estavam a bordo. Segundo a assessoria, nem ele nem os pilotos se feriram.
O senador veio para São Paulo porque tem reunião agendada com o ex-presidente Fernando Henrique Cardoso na manhã desta sexta (10). Apesar do incidente, o encontro foi mantido.
Fernanda Carvalho/O Tempo/Estadão Conteúdo
fonte/foto/UOL

Da…

VÍDEOS DO ACIDENTE COM BOEING 737 DA PERUVIAN AIRLINES EM JAUJA